createdAt,value
2023-05-10T00:03:48.138Z,37.73
2023-05-10T00:08:51.428Z,39.78
2023-05-10T00:13:53.497Z,40.98
2023-05-10T00:18:55.540Z,42.61
2023-05-10T00:23:57.772Z,43.37
2023-05-10T00:28:59.801Z,45.65
2023-05-10T00:34:01.868Z,45.96
2023-05-10T00:39:04.787Z,46.61
2023-05-10T00:44:06.963Z,46.87
2023-05-10T00:49:09.250Z,47.45
2023-05-10T00:54:15.701Z,47.87
2023-05-10T00:59:18.938Z,48.12
2023-05-10T01:04:26.565Z,48.40
2023-05-10T01:09:29.058Z,48.51
2023-05-10T01:14:31.461Z,48.65
2023-05-10T01:19:36.153Z,49.38
2023-05-10T01:25:05.784Z,49.34
2023-05-10T01:30:17.891Z,49.62
2023-05-10T01:35:36.715Z,49.93
2023-05-10T01:41:01.853Z,50.30
2023-05-10T01:46:11.741Z,50.44
2023-05-10T01:51:16.719Z,50.69
2023-05-10T01:56:22.583Z,50.55
2023-05-10T02:01:25.537Z,51.16
2023-05-10T02:06:28.544Z,51.18
2023-05-10T02:11:31.295Z,51.40
2023-05-10T02:16:33.594Z,51.26
2023-05-10T02:21:36.593Z,51.64
2023-05-10T02:26:39.530Z,51.88
2023-05-10T02:31:44.694Z,52.26
2023-05-10T02:36:47.357Z,52.04
2023-05-10T02:41:51.764Z,52.54
2023-05-10T02:46:53.755Z,52.90
2023-05-10T02:51:59.622Z,53.36
2023-05-10T02:57:05.656Z,53.60
2023-05-10T03:02:07.906Z,53.88
2023-05-10T03:07:10.323Z,54.36
2023-05-10T03:12:18.404Z,54.58
2023-05-10T03:17:27.060Z,54.48
2023-05-10T03:22:37.914Z,54.96
2023-05-10T03:27:41.771Z,55.30
2023-05-10T03:32:44.087Z,55.32
2023-05-10T03:37:46.397Z,55.36
2023-05-10T03:42:48.609Z,55.24
2023-05-10T03:47:50.653Z,55.21
2023-05-10T03:52:54.104Z,54.23
2023-05-10T03:57:56.661Z,54.38
2023-05-10T04:02:59.125Z,54.99
2023-05-10T04:08:01.158Z,55.36
2023-05-10T04:13:03.405Z,56.20
2023-05-10T04:18:07.996Z,56.02
2023-05-10T04:23:10.762Z,55.91
2023-05-10T04:28:12.932Z,55.63
2023-05-10T04:33:15.603Z,55.24
2023-05-10T04:38:17.537Z,55.05
2023-05-10T04:43:19.928Z,55.16
2023-05-10T04:48:22.054Z,54.88
2023-05-10T04:53:24.084Z,54.96
2023-05-10T04:58:26.337Z,55.56
2023-05-10T05:03:28.675Z,56.28
2023-05-10T05:08:30.738Z,56.96
2023-05-10T05:13:32.751Z,57.21
2023-05-10T05:18:34.979Z,57.10
2023-05-10T05:23:37.373Z,57.62
2023-05-10T05:28:39.664Z,57.02
2023-05-10T05:33:41.890Z,57.09
2023-05-10T05:38:44.374Z,56.81
2023-05-10T05:43:46.382Z,57.16
2023-05-10T05:48:48.655Z,57.14
2023-05-10T05:53:50.583Z,57.46
2023-05-10T05:58:52.791Z,57.06
2023-05-10T06:03:54.981Z,57.12
2023-05-10T06:08:57.007Z,57.55
2023-05-10T06:14:00.485Z,57.04
2023-05-10T06:19:03.403Z,56.87
2023-05-10T06:24:07.796Z,56.51
2023-05-10T06:29:09.700Z,56.91
2023-05-10T06:34:12.984Z,56.38
2023-05-10T06:39:15.179Z,56.15
2023-05-10T06:44:17.223Z,56.14
2023-05-10T06:49:19.192Z,56.90
2023-05-10T06:54:21.199Z,55.85
2023-05-10T06:59:23.279Z,53.51
2023-05-10T07:04:25.993Z,53.98
2023-05-10T07:09:28.051Z,53.58
2023-05-10T07:14:29.974Z,52.70
2023-05-10T07:19:33.828Z,50.75
2023-05-10T07:24:36.009Z,51.39
2023-05-10T07:29:38.657Z,50.42
2023-05-10T07:34:40.772Z,49.71
2023-05-10T07:39:43.968Z,49.57
2023-05-10T07:44:46.810Z,49.69
2023-05-10T07:49:48.808Z,49.34
2023-05-10T07:54:50.766Z,49.44
2023-05-10T07:59:52.806Z,48.84
2023-05-10T08:04:55.180Z,48.41
2023-05-10T08:09:57.289Z,47.71
2023-05-10T08:14:59.487Z,47.38
2023-05-10T08:20:01.808Z,46.57
2023-05-10T08:25:04.415Z,45.79
2023-05-10T08:30:11.362Z,44.75
2023-05-10T08:35:13.400Z,43.46
2023-05-10T08:40:15.939Z,42.75
2023-05-10T08:45:18.699Z,40.03
2023-05-10T08:50:23.154Z,38.43
2023-05-10T08:55:25.738Z,35.71
2023-05-10T09:00:28.792Z,35.84
2023-05-10T09:05:30.983Z,35.38
2023-05-10T09:10:33.269Z,33.65
2023-05-10T09:15:35.569Z,32.71
2023-05-10T09:20:37.523Z,31.15
2023-05-10T09:25:39.963Z,31.73
2023-05-10T09:30:43.963Z,30.76
2023-05-10T09:35:46.291Z,30.44
2023-05-10T09:40:57.938Z,29.05
2023-05-10T09:46:00.062Z,28.89
2023-05-10T09:51:02.127Z,28.84
2023-05-10T09:56:04.364Z,28.12
2023-05-10T10:01:12.561Z,26.91
2023-05-10T10:06:29.515Z,26.81
2023-05-10T10:11:39.649Z,27.06
2023-05-10T10:16:51.644Z,26.42
2023-05-10T10:22:02.167Z,26.41
2023-05-10T10:27:22.370Z,27.08
2023-05-10T10:32:31.596Z,26.06
2023-05-10T10:37:47.458Z,25.43
2023-05-10T10:42:51.109Z,25.72
2023-05-10T10:48:24.447Z,24.68
2023-05-10T10:53:30.164Z,25.12
2023-05-10T10:58:35.295Z,24.36
2023-05-10T11:03:37.651Z,23.30
2023-05-10T11:08:53.819Z,23.57
2023-05-10T11:14:04.682Z,23.26
2023-05-10T11:19:09.450Z,22.89
2023-05-10T11:24:16.573Z,22.01
2023-05-10T11:29:18.892Z,23.95
2023-05-10T11:34:28.035Z,23.10
2023-05-10T11:39:31.528Z,24.57
2023-05-10T11:44:34.031Z,25.22
2023-05-10T11:49:36.109Z,24.71
2023-05-10T11:54:38.397Z,24.01
2023-05-10T11:59:42.467Z,25.12
2023-05-10T12:04:45.175Z,25.16
2023-05-10T12:10:19.018Z,26.11
2023-05-10T12:15:26.044Z,25.32
2023-05-10T12:20:29.078Z,25.70
2023-05-10T12:25:35.946Z,26.22
2023-05-10T12:30:39.063Z,25.33
2023-05-10T12:35:46.885Z,25.26
2023-05-10T12:40:48.760Z,26.04
2023-05-10T12:45:50.946Z,26.24
2023-05-10T12:50:53.093Z,25.23
2023-05-10T12:55:57.680Z,26.09
2023-05-10T13:01:01.341Z,24.99
2023-05-10T13:06:04.291Z,26.19
2023-05-10T13:11:06.864Z,24.78
2023-05-10T13:16:08.896Z,25.07
2023-05-10T13:28:34.782Z,24.26
2023-05-10T13:33:36.786Z,23.99
2023-05-10T13:46:02.732Z,24.28
2023-05-10T13:51:05.057Z,25.11
2023-05-10T13:56:07.726Z,24.12
2023-05-10T14:01:09.734Z,24.45
2023-05-10T14:06:11.979Z,24.56
2023-05-10T14:11:14.098Z,23.93
2023-05-10T14:16:16.152Z,22.73
2023-05-10T14:21:18.106Z,23.79
2023-05-10T14:26:19.989Z,24.19
2023-05-10T14:31:26.531Z,24.24
2023-05-10T14:36:28.665Z,23.97
2023-05-10T14:41:32.057Z,22.42
2023-05-10T14:46:35.674Z,23.22
2023-05-10T14:51:43.497Z,23.20
2023-05-10T14:56:46.194Z,19.77
2023-05-10T15:01:48.266Z,19.18
2023-05-10T15:06:50.818Z,21.35
2023-05-10T15:11:56.651Z,19.48
2023-05-10T15:16:58.579Z,19.72
2023-05-10T15:22:00.599Z,21.06
2023-05-10T15:27:02.683Z,20.37
2023-05-10T15:32:07.778Z,18.72
2023-05-10T15:37:13.818Z,18.35
2023-05-10T15:42:15.923Z,19.19
2023-05-10T15:47:17.948Z,19.27
2023-05-10T15:52:21.184Z,17.58
2023-05-10T15:57:23.997Z,18.92
2023-05-10T16:02:27.809Z,19.74
2023-05-10T16:07:32.599Z,19.57
2023-05-10T16:12:34.788Z,19.43
2023-05-10T16:17:37.444Z,16.24
2023-05-10T16:22:39.722Z,17.41
2023-05-10T16:27:41.749Z,18.54
2023-05-10T16:32:49.007Z,16.55
2023-05-10T16:37:53.568Z,16.65
2023-05-10T16:43:00.501Z,15.71
2023-05-10T16:48:06.327Z,16.01
2023-05-10T16:53:08.200Z,16.16
2023-05-10T16:58:11.768Z,16.79
2023-05-10T17:03:13.918Z,16.43
2023-05-10T17:08:16.654Z,17.03
2023-05-10T17:13:18.919Z,16.95
2023-05-10T17:18:21.261Z,16.14
2023-05-10T17:23:23.177Z,16.92
2023-05-10T17:28:25.469Z,16.56
2023-05-10T17:33:27.469Z,16.03
2023-05-10T17:38:29.603Z,15.98
2023-05-10T17:43:31.762Z,16.98
2023-05-10T17:48:33.941Z,17.18
2023-05-10T17:53:36.066Z,16.86
2023-05-10T17:58:38.577Z,18.22
2023-05-10T18:03:40.625Z,17.54
2023-05-10T18:08:42.724Z,17.79
2023-05-10T18:13:46.564Z,18.81
2023-05-10T18:18:49.151Z,18.86
2023-05-10T18:23:51.019Z,19.44
2023-05-10T18:28:53.017Z,18.97
2023-05-10T18:33:55.120Z,20.15
2023-05-10T18:39:03.726Z,20.12
2023-05-10T18:44:05.821Z,20.59
2023-05-10T18:49:08.522Z,20.24
2023-05-10T18:54:10.429Z,20.52
2023-05-10T18:59:12.973Z,20.72
2023-05-10T19:04:15.308Z,21.50
2023-05-10T19:09:20.209Z,22.09
2023-05-10T19:14:22.692Z,22.45
2023-05-10T19:19:25.551Z,22.24
2023-05-10T19:24:27.551Z,22.31
2023-05-10T19:29:29.448Z,22.49
2023-05-10T19:34:31.473Z,22.20
2023-05-10T19:39:33.522Z,22.65
2023-05-10T19:44:36.151Z,22.50
2023-05-10T19:49:38.829Z,22.53
2023-05-10T19:54:40.947Z,23.25
2023-05-10T19:59:42.919Z,22.95
2023-05-10T20:04:45.197Z,23.13
2023-05-10T20:09:47.145Z,23.21
2023-05-10T20:14:49.071Z,23.61
2023-05-10T20:19:51.002Z,23.56
2023-05-10T20:24:55.760Z,23.95
2023-05-10T20:29:57.989Z,24.17
2023-05-10T20:34:59.896Z,24.21
2023-05-10T20:40:01.893Z,24.71
2023-05-10T20:45:04.585Z,24.88
2023-05-10T20:50:07.336Z,25.39
2023-05-10T20:55:09.668Z,25.33
2023-05-10T21:00:12.281Z,25.28
2023-05-10T21:05:14.157Z,25.56
2023-05-10T21:10:16.193Z,25.66
2023-05-10T21:15:18.337Z,25.83
2023-05-10T21:20:20.310Z,25.86
2023-05-10T21:25:23.430Z,26.49
2023-05-10T21:30:26.167Z,26.74
2023-05-10T21:35:29.515Z,27.22
2023-05-10T21:40:31.467Z,27.99
2023-05-10T21:45:33.550Z,28.33
2023-05-10T21:50:35.656Z,27.95
2023-05-10T21:55:37.596Z,27.93
2023-05-10T22:00:39.568Z,28.12
2023-05-10T22:05:41.717Z,28.00
2023-05-10T22:10:43.705Z,27.78
2023-05-10T22:15:45.950Z,28.21
2023-05-10T22:20:48.164Z,28.79
2023-05-10T22:25:52.234Z,28.83
2023-05-10T22:30:54.460Z,29.16
2023-05-10T22:35:56.674Z,29.12
2023-05-10T22:40:59.806Z,29.49
2023-05-10T22:46:01.964Z,30.23
2023-05-10T22:51:04.198Z,30.55
2023-05-10T22:56:06.659Z,31.47
2023-05-10T23:01:08.849Z,32.55
2023-05-10T23:06:11.199Z,33.34
2023-05-10T23:11:13.657Z,34.36
2023-05-10T23:16:15.939Z,35.15
2023-05-10T23:21:18.408Z,35.24
2023-05-10T23:26:21.958Z,35.96
2023-05-10T23:31:24.092Z,36.80
2023-05-10T23:36:26.569Z,37.13
2023-05-10T23:41:30.856Z,38.18
2023-05-10T23:46:33.408Z,38.23
2023-05-10T23:51:35.394Z,38.99
2023-05-10T23:56:39.222Z,38.92
